createdAt,value
2018-06-22T00:01:46.937Z,73.78
2018-06-22T00:04:14.980Z,74.61
2018-06-22T00:06:43.041Z,74.67
2018-06-22T00:09:11.608Z,74.58
2018-06-22T00:11:39.796Z,74.59
2018-06-22T00:14:08.367Z,74.66
2018-06-22T00:16:36.516Z,74.62
2018-06-22T00:19:04.620Z,74.82
2018-06-22T00:21:32.658Z,75.24
2018-06-22T00:24:00.707Z,74.92
2018-06-22T00:26:28.795Z,74.63
2018-06-22T00:28:56.841Z,75.06
2018-06-22T00:33:52.011Z,74.47
2018-06-22T00:36:20.048Z,75.21
2018-06-22T00:38:48.092Z,74.91
2018-06-22T00:41:16.134Z,74.76
2018-06-22T00:43:44.187Z,75.38
2018-06-22T00:46:12.229Z,75.04
2018-06-22T00:48:40.273Z,75.11
2018-06-22T00:51:08.319Z,75.68
2018-06-22T00:53:47.728Z,76.08
2018-06-22T00:56:15.763Z,75.51
2018-06-22T00:58:43.796Z,75.76
2018-06-22T01:01:11.839Z,75.60
2018-06-22T01:03:39.906Z,75.38
2018-06-22T01:06:07.953Z,75.34
2018-06-22T01:08:36.044Z,75.24
2018-06-22T01:11:04.124Z,75.73
2018-06-22T01:13:32.200Z,75.74
2018-06-22T01:16:00.244Z,75.43
2018-06-22T01:18:28.289Z,75.29
2018-06-22T01:20:56.323Z,75.24
2018-06-22T01:23:24.355Z,75.50
2018-06-22T01:25:52.456Z,75.16
2018-06-22T01:28:20.508Z,75.57
2018-06-22T01:30:48.563Z,75.81
2018-06-22T01:33:16.596Z,74.96
2018-06-22T01:35:44.635Z,75.26
2018-06-22T01:38:12.664Z,75.81
2018-06-22T01:40:40.703Z,75.88
2018-06-22T01:43:08.758Z,75.53
2018-06-22T01:45:36.796Z,76.37
2018-06-22T01:48:04.865Z,76.22
2018-06-22T01:50:32.899Z,76.23
2018-06-22T01:53:00.924Z,76.48
2018-06-22T01:55:28.960Z,76.32
2018-06-22T01:57:57.019Z,76.38
2018-06-22T02:00:25.065Z,76.19
2018-06-22T02:02:53.088Z,76.71
2018-06-22T02:05:21.139Z,75.83
2018-06-22T02:07:49.177Z,75.60
2018-06-22T02:10:17.192Z,75.60
2018-06-22T02:12:45.270Z,76.21
2018-06-22T02:15:13.312Z,75.41
2018-06-22T02:17:41.356Z,75.50
2018-06-22T02:20:09.410Z,75.84
2018-06-22T02:22:37.452Z,76.16
2018-06-22T02:25:05.500Z,76.04
2018-06-22T02:27:33.563Z,75.42
2018-06-22T02:30:01.603Z,76.33
2018-06-22T02:32:29.629Z,76.44
2018-06-22T02:34:57.656Z,75.76
2018-06-22T02:37:25.784Z,75.87
2018-06-22T02:39:53.830Z,74.32
2018-06-22T02:42:21.868Z,75.35
2018-06-22T02:44:49.895Z,75.41
2018-06-22T02:47:17.933Z,75.17
2018-06-22T02:49:45.966Z,73.29
2018-06-22T02:52:14.000Z,74.07
2018-06-22T02:54:42.020Z,73.73
2018-06-22T02:57:10.059Z,73.86
2018-06-22T02:59:38.099Z,73.91
2018-06-22T03:02:06.165Z,73.08
2018-06-22T03:04:34.192Z,73.22
2018-06-22T03:07:02.225Z,73.50
2018-06-22T03:09:30.276Z,73.89
2018-06-22T03:11:58.322Z,74.06
2018-06-22T03:14:26.353Z,73.92
2018-06-22T03:16:54.481Z,74.12
2018-06-22T03:19:22.522Z,74.35
2018-06-22T03:21:50.552Z,74.35
2018-06-22T03:24:18.581Z,74.12
2018-06-22T03:26:46.604Z,74.35
2018-06-22T03:29:14.649Z,74.53
2018-06-22T03:31:42.676Z,73.97
2018-06-22T03:34:10.741Z,74.60
2018-06-22T03:36:38.772Z,74.32
2018-06-22T03:39:08.237Z,74.21
2018-06-22T03:41:36.265Z,74.87
2018-06-22T03:44:04.299Z,75.00
2018-06-22T03:46:32.324Z,74.57
2018-06-22T03:49:00.397Z,75.06
2018-06-22T03:51:28.490Z,74.49
2018-06-22T03:53:56.520Z,75.35
2018-06-22T03:56:24.588Z,75.17
2018-06-22T03:58:52.620Z,75.49
2018-06-22T04:01:20.648Z,75.15
2018-06-22T04:03:48.712Z,75.45
2018-06-22T04:06:16.732Z,76.30
2018-06-22T04:08:44.775Z,76.07
2018-06-22T04:11:12.808Z,75.94
2018-06-22T04:13:40.839Z,75.85
2018-06-22T04:16:08.860Z,75.62
2018-06-22T04:18:36.944Z,76.09
2018-06-22T04:21:04.976Z,76.03
2018-06-22T04:23:32.992Z,75.71
2018-06-22T04:26:01.039Z,75.93
2018-06-22T04:28:29.098Z,75.76
2018-06-22T04:30:57.159Z,75.43
2018-06-22T04:33:25.204Z,75.51
2018-06-22T04:35:53.268Z,75.25
2018-06-22T04:38:21.294Z,75.17
2018-06-22T04:40:49.340Z,75.45
2018-06-22T04:43:17.356Z,75.78
2018-06-22T04:45:45.389Z,75.27
2018-06-22T04:48:13.415Z,75.47
2018-06-22T04:50:41.467Z,74.93
2018-06-22T04:53:09.521Z,75.46
2018-06-22T04:55:37.553Z,74.91
2018-06-22T04:58:05.580Z,74.70
2018-06-22T05:00:33.617Z,74.89
2018-06-22T05:03:01.642Z,75.87
2018-06-22T05:05:29.690Z,75.24
2018-06-22T05:07:57.784Z,74.88
2018-06-22T05:10:25.837Z,75.09
2018-06-22T05:12:53.864Z,74.80
2018-06-22T05:15:21.896Z,75.10
2018-06-22T05:17:49.936Z,74.98
2018-06-22T05:20:17.951Z,74.82
2018-06-22T05:22:46.023Z,75.41
2018-06-22T05:25:14.070Z,74.53
2018-06-22T05:27:42.100Z,74.91
2018-06-22T05:30:10.150Z,75.48
2018-06-22T05:32:38.183Z,75.16
2018-06-22T05:35:06.224Z,74.41
2018-06-22T05:37:34.264Z,74.99
2018-06-22T05:40:02.288Z,75.16
2018-06-22T05:42:30.341Z,74.63
2018-06-22T05:44:58.376Z,75.20
2018-06-22T05:47:28.329Z,74.79
2018-06-22T05:49:56.376Z,75.04
2018-06-22T05:52:24.439Z,73.91
2018-06-22T05:54:52.478Z,73.55
2018-06-22T05:57:20.536Z,74.16
2018-06-22T05:59:48.572Z,74.29
2018-06-22T06:02:16.625Z,73.45
2018-06-22T06:04:44.656Z,73.45
2018-06-22T06:07:12.707Z,74.09
2018-06-22T06:09:40.736Z,73.81
2018-06-22T06:12:08.805Z,73.61
2018-06-22T06:14:36.860Z,73.73
2018-06-22T06:17:04.967Z,73.84
2018-06-22T06:19:33.000Z,73.82
2018-06-22T06:22:01.039Z,73.71
2018-06-22T06:24:29.072Z,73.52
2018-06-22T06:26:57.120Z,73.04
2018-06-22T06:29:25.180Z,73.07
2018-06-22T06:31:53.236Z,72.55
2018-06-22T06:34:21.296Z,73.46
2018-06-22T06:36:49.317Z,73.45
2018-06-22T06:39:17.364Z,73.60
2018-06-22T06:41:45.516Z,72.84
2018-06-22T06:44:13.561Z,73.69
2018-06-22T06:46:41.619Z,73.28
2018-06-22T06:49:09.648Z,73.29
2018-06-22T06:51:37.700Z,73.06
2018-06-22T06:54:05.753Z,73.06
2018-06-22T06:56:33.804Z,73.88
2018-06-22T06:59:02.195Z,73.65
2018-06-22T07:01:30.479Z,73.00
2018-06-22T07:03:58.573Z,73.67
2018-06-22T07:06:26.620Z,73.42
2018-06-22T07:08:54.720Z,73.57
2018-06-22T07:11:22.767Z,72.88
2018-06-22T07:13:50.849Z,73.15
2018-06-22T07:16:18.883Z,73.40
2018-06-22T07:18:47.158Z,72.35
2018-06-22T07:21:15.204Z,71.92
2018-06-22T07:23:43.274Z,71.60
2018-06-22T07:26:11.359Z,69.89
2018-06-22T07:28:39.416Z,70.83
2018-06-22T07:31:07.719Z,70.90
2018-06-22T07:33:35.777Z,70.44
2018-06-22T07:36:03.902Z,70.55
2018-06-22T07:38:31.912Z,70.18
2018-06-22T07:41:00.000Z,70.57
2018-06-22T07:43:28.061Z,70.04
2018-06-22T07:45:56.112Z,69.78
2018-06-22T07:48:24.169Z,69.15
2018-06-22T07:50:52.241Z,68.87
2018-06-22T07:53:20.312Z,67.98
2018-06-22T07:55:48.356Z,67.95
2018-06-22T07:58:16.417Z,70.65
2018-06-22T08:00:44.466Z,71.79
2018-06-22T08:03:12.524Z,72.35
2018-06-22T08:05:40.592Z,71.62
2018-06-22T08:08:08.682Z,69.64
2018-06-22T08:10:36.841Z,67.79
2018-06-22T08:13:04.909Z,69.33
2018-06-22T08:15:33.009Z,69.54
2018-06-22T08:18:01.182Z,68.91
2018-06-22T08:20:29.230Z,68.65
2018-06-22T08:22:57.348Z,67.84
2018-06-22T08:25:25.478Z,67.01
2018-06-22T08:27:53.556Z,66.39
2018-06-22T08:30:21.621Z,63.41
2018-06-22T08:32:49.672Z,64.06
2018-06-22T08:35:17.741Z,64.14
2018-06-22T08:37:45.812Z,62.13
2018-06-22T08:40:13.873Z,61.77
2018-06-22T08:42:41.921Z,58.97
2018-06-22T08:45:09.978Z,58.14
2018-06-22T08:47:38.035Z,57.86
2018-06-22T08:50:06.129Z,56.70
2018-06-22T08:52:34.220Z,56.17
2018-06-22T08:55:02.292Z,55.92
2018-06-22T08:57:30.357Z,54.75
2018-06-22T08:59:58.420Z,54.69
2018-06-22T09:02:26.475Z,52.39
2018-06-22T09:04:54.540Z,53.39
2018-06-22T09:07:22.637Z,51.96
2018-06-22T09:09:50.715Z,51.43
2018-06-22T09:12:18.780Z,51.22
2018-06-22T09:14:46.877Z,50.14
2018-06-22T09:17:14.936Z,48.99
2018-06-22T09:19:43.086Z,50.11
2018-06-22T09:22:11.113Z,50.15
2018-06-22T09:24:39.185Z,50.37
2018-06-22T09:27:07.251Z,49.25
2018-06-22T09:29:35.344Z,48.51
2018-06-22T09:32:03.449Z,48.21
2018-06-22T09:34:31.524Z,47.25
2018-06-22T09:36:59.581Z,46.86
2018-06-22T09:39:27.656Z,45.99
2018-06-22T09:41:55.706Z,45.47
2018-06-22T09:44:36.949Z,45.75
2018-06-22T09:47:05.189Z,45.80
2018-06-22T09:49:33.281Z,45.84
2018-06-22T09:52:01.357Z,45.32
2018-06-22T09:54:29.421Z,45.20
2018-06-22T09:56:57.498Z,44.26
2018-06-22T09:59:25.603Z,43.18
2018-06-22T10:01:54.536Z,42.02
2018-06-22T10:04:23.431Z,42.19
2018-06-22T10:06:52.028Z,42.60
2018-06-22T10:09:20.086Z,40.66
2018-06-22T10:11:48.203Z,40.89
2018-06-22T10:14:16.268Z,41.10
2018-06-22T10:16:44.341Z,41.98
2018-06-22T10:19:12.391Z,41.63
2018-06-22T10:21:40.467Z,42.37
2018-06-22T10:24:08.528Z,41.04
2018-06-22T10:26:36.592Z,41.38
2018-06-22T10:29:04.671Z,39.98
2018-06-22T10:31:32.776Z,38.81
2018-06-22T10:34:00.863Z,39.64
2018-06-22T10:36:28.957Z,39.39
2018-06-22T10:38:57.020Z,38.73
2018-06-22T10:41:25.109Z,39.20
2018-06-22T10:43:53.176Z,39.27
2018-06-22T10:46:21.252Z,39.16
2018-06-22T10:48:49.315Z,39.97
2018-06-22T10:51:17.404Z,40.42
2018-06-22T10:53:45.465Z,39.00
2018-06-22T10:56:13.538Z,41.28
2018-06-22T10:58:41.621Z,39.96
2018-06-22T11:01:09.708Z,39.29
2018-06-22T11:03:37.856Z,39.70
2018-06-22T11:06:05.921Z,39.33
2018-06-22T11:08:33.969Z,39.22
2018-06-22T11:11:02.032Z,38.35
2018-06-22T11:13:30.106Z,38.82
2018-06-22T11:15:58.153Z,38.94
2018-06-22T11:18:26.317Z,38.68
2018-06-22T11:20:54.293Z,39.07
2018-06-22T11:23:22.361Z,39.32
2018-06-22T11:25:50.433Z,38.92
2018-06-22T11:28:18.513Z,38.40
2018-06-22T11:30:46.624Z,38.92
2018-06-22T11:33:14.631Z,38.79
2018-06-22T11:35:42.785Z,39.16
2018-06-22T11:38:10.793Z,38.86
2018-06-22T11:40:38.844Z,38.06
2018-06-22T11:43:06.904Z,38.28
2018-06-22T11:45:34.960Z,38.65
2018-06-22T11:48:03.016Z,38.47
2018-06-22T11:50:31.182Z,38.29
2018-06-22T11:52:59.235Z,38.14
2018-06-22T11:55:27.284Z,38.38
2018-06-22T11:57:55.354Z,38.39
2018-06-22T12:00:23.399Z,38.23
2018-06-22T12:02:51.491Z,37.93
2018-06-22T12:05:19.578Z,38.67
2018-06-22T12:07:47.663Z,39.31
2018-06-22T12:10:15.711Z,38.27
2018-06-22T12:12:43.756Z,38.80
2018-06-22T12:15:11.829Z,39.29
2018-06-22T12:17:39.900Z,39.35
2018-06-22T12:20:07.944Z,38.81
2018-06-22T12:22:36.004Z,39.20
2018-06-22T12:25:04.085Z,38.85
2018-06-22T12:27:32.252Z,39.50
2018-06-22T12:30:00.317Z,39.08
2018-06-22T12:32:28.660Z,38.82
2018-06-22T12:34:56.719Z,39.73
2018-06-22T12:37:24.792Z,40.57
2018-06-22T12:39:52.921Z,39.71
2018-06-22T12:42:20.965Z,39.71
2018-06-22T12:44:49.036Z,40.17
2018-06-22T12:47:17.086Z,39.65
2018-06-22T12:49:45.220Z,39.67
2018-06-22T12:52:13.314Z,39.77
2018-06-22T12:54:41.380Z,41.43
2018-06-22T12:57:09.448Z,40.88
2018-06-22T12:59:37.535Z,40.84
2018-06-22T13:02:05.788Z,40.65
2018-06-22T13:04:33.884Z,41.36
2018-06-22T13:07:01.940Z,42.11
2018-06-22T13:09:30.083Z,40.07
2018-06-22T13:11:58.076Z,39.08
2018-06-22T13:14:26.131Z,38.39
2018-06-22T13:16:54.240Z,38.30
2018-06-22T13:19:22.304Z,37.95
2018-06-22T13:21:52.565Z,38.91
2018-06-22T13:24:22.014Z,37.83
2018-06-22T13:26:50.087Z,37.85
2018-06-22T13:29:18.159Z,38.49
2018-06-22T13:31:46.265Z,37.63
2018-06-22T13:34:15.421Z,37.54
2018-06-22T13:36:43.791Z,38.02
2018-06-22T13:39:14.257Z,38.86
2018-06-22T13:41:42.706Z,39.69
2018-06-22T13:44:11.080Z,40.53
2018-06-22T13:46:39.867Z,41.14
2018-06-22T13:49:08.755Z,41.00
2018-06-22T13:51:37.338Z,42.35
2018-06-22T13:54:05.402Z,43.12
2018-06-22T13:56:34.295Z,41.76
2018-06-22T13:59:02.672Z,41.59
2018-06-22T14:01:31.575Z,41.45
2018-06-22T14:04:04.944Z,41.07
2018-06-22T14:06:38.456Z,41.68
2018-06-22T14:09:09.938Z,41.04
2018-06-22T14:11:37.969Z,41.81
2018-06-22T14:14:06.027Z,40.97
2018-06-22T14:16:34.168Z,41.41
2018-06-22T14:19:02.328Z,41.19
2018-06-22T14:21:30.384Z,41.86
2018-06-22T14:23:58.640Z,41.70
2018-06-22T14:26:26.677Z,41.38
2018-06-22T14:28:54.740Z,41.52
2018-06-22T14:31:22.783Z,41.01
2018-06-22T14:33:50.833Z,39.59
2018-06-22T14:36:18.892Z,39.80
2018-06-22T14:38:46.964Z,40.32
2018-06-22T14:41:15.028Z,38.10
2018-06-22T14:43:43.083Z,38.32
2018-06-22T14:46:11.157Z,36.58
2018-06-22T14:48:39.202Z,38.15
2018-06-22T14:51:07.292Z,38.58
2018-06-22T14:53:40.740Z,38.36
2018-06-22T14:56:14.086Z,37.02
2018-06-22T14:58:47.477Z,38.16
2018-06-22T15:01:20.912Z,38.48
2018-06-22T15:03:54.460Z,38.93
2018-06-22T15:06:27.947Z,39.01
2018-06-22T15:08:56.017Z,39.43
2018-06-22T15:11:24.093Z,40.83
2018-06-22T15:13:52.151Z,41.42
2018-06-22T15:16:20.219Z,41.99
2018-06-22T15:18:48.627Z,42.46
2018-06-22T15:21:16.715Z,42.65
2018-06-22T15:23:44.780Z,43.60
2018-06-22T15:26:12.840Z,43.84
2018-06-22T15:28:40.896Z,43.96
2018-06-22T15:31:08.956Z,44.53
2018-06-22T15:33:42.461Z,44.64
2018-06-22T15:36:16.054Z,44.28
2018-06-22T15:38:49.550Z,43.51
2018-06-22T15:41:23.066Z,42.98
2018-06-22T15:43:56.576Z,43.44
2018-06-22T15:46:29.997Z,42.07
2018-06-22T15:49:03.533Z,41.80
2018-06-22T15:51:37.062Z,41.86
2018-06-22T15:54:10.594Z,42.79
2018-06-22T15:56:38.619Z,42.50
2018-06-22T15:59:06.779Z,43.52
2018-06-22T16:01:34.838Z,43.87
2018-06-22T16:04:07.064Z,45.29
2018-06-22T16:06:35.119Z,45.65
2018-06-22T16:09:03.881Z,45.80
2018-06-22T16:11:31.947Z,46.82
2018-06-22T16:14:05.285Z,47.51
2018-06-22T16:16:38.693Z,46.92
2018-06-22T16:19:12.242Z,47.59
2018-06-22T16:21:45.561Z,47.20
2018-06-22T16:24:19.064Z,48.38
2018-06-22T16:26:52.458Z,49.16
2018-06-22T16:29:20.500Z,49.40
2018-06-22T16:31:48.548Z,50.50
2018-06-22T16:34:16.600Z,50.43
2018-06-22T16:36:44.664Z,50.18
2018-06-22T16:39:13.801Z,51.00
2018-06-22T16:41:41.849Z,51.22
2018-06-22T16:44:10.460Z,51.65
2018-06-22T16:46:38.500Z,51.99
2018-06-22T16:49:06.588Z,53.31
2018-06-22T16:51:36.719Z,54.38
2018-06-22T16:54:04.860Z,54.64
2018-06-22T16:56:32.923Z,57.27
2018-06-22T16:59:02.501Z,57.87
2018-06-22T17:01:30.841Z,56.26
2018-06-22T17:03:58.900Z,56.05
2018-06-22T17:06:26.957Z,54.02
2018-06-22T17:09:00.470Z,53.14
2018-06-22T17:11:33.848Z,54.03
2018-06-22T17:15:05.964Z,55.49
2018-06-22T17:17:39.494Z,55.61
2018-06-22T17:20:07.573Z,57.22
2018-06-22T17:22:35.655Z,56.57
2018-06-22T17:25:03.724Z,56.90
2018-06-22T17:27:31.794Z,55.96
2018-06-22T17:29:59.893Z,55.20
2018-06-22T17:32:27.957Z,55.61
2018-06-22T17:34:56.033Z,53.49
2018-06-22T17:37:24.089Z,55.85
2018-06-22T17:39:52.156Z,55.39
2018-06-22T17:42:20.213Z,56.22
2018-06-22T17:44:48.288Z,55.65
2018-06-22T17:47:16.368Z,55.25
2018-06-22T17:49:44.436Z,55.58
2018-06-22T17:52:12.488Z,55.16
2018-06-22T17:54:40.571Z,55.10
2018-06-22T17:57:08.632Z,55.05
2018-06-22T17:59:42.017Z,55.24
2018-06-22T18:02:15.368Z,55.76
2018-06-22T18:04:45.580Z,55.91
2018-06-22T18:07:19.220Z,55.65
2018-06-22T18:09:52.782Z,55.24
2018-06-22T18:12:26.289Z,55.78
2018-06-22T18:14:54.452Z,56.19
2018-06-22T18:17:23.545Z,56.13
2018-06-22T18:19:55.415Z,55.96
2018-06-22T18:22:26.546Z,56.90
2018-06-22T18:24:58.596Z,56.56
2018-06-22T18:27:28.131Z,55.93
2018-06-22T18:30:00.853Z,55.46
2018-06-22T18:32:33.982Z,57.31
2018-06-22T18:35:08.921Z,57.09
2018-06-22T18:37:44.927Z,57.52
2018-06-22T18:40:13.578Z,57.57
2018-06-22T18:42:41.796Z,57.44
2018-06-22T18:45:11.145Z,57.35
2018-06-22T18:47:39.416Z,58.09
2018-06-22T18:50:10.461Z,57.01
2018-06-22T18:52:43.938Z,57.46
2018-06-22T18:55:18.303Z,57.12
2018-06-22T18:57:51.855Z,57.07
2018-06-22T19:00:25.239Z,56.85
2018-06-22T19:02:58.687Z,57.38
2018-06-22T19:05:26.692Z,57.16
2018-06-22T19:07:54.741Z,56.31
2018-06-22T19:10:22.814Z,56.55
2018-06-22T19:12:50.882Z,57.01
2018-06-22T19:15:19.203Z,56.29
2018-06-22T19:17:49.060Z,56.87
2018-06-22T19:20:18.508Z,55.90
2018-06-22T19:22:51.492Z,56.15
2018-06-22T19:25:24.379Z,55.94
2018-06-22T19:27:58.577Z,56.78
2018-06-22T19:35:51.707Z,55.87
2018-06-22T19:38:19.765Z,56.96
2018-06-22T19:40:57.213Z,57.49
2018-06-22T19:43:34.124Z,57.54
2018-06-22T19:46:09.076Z,57.86
2018-06-22T19:48:57.310Z,57.74
2018-06-22T19:51:32.338Z,58.03
2018-06-22T19:54:05.546Z,58.17
2018-06-22T19:56:54.891Z,57.66
2018-06-22T19:59:34.494Z,57.27
2018-06-22T20:02:12.319Z,58.29
2018-06-22T20:04:40.383Z,57.90
2018-06-22T20:07:08.468Z,58.05
2018-06-22T20:09:36.525Z,57.50
2018-06-22T20:12:04.732Z,57.22
2018-06-22T20:14:32.988Z,57.09
2018-06-22T20:17:01.054Z,57.60
2018-06-22T20:19:29.136Z,57.08
2018-06-22T20:21:58.226Z,57.57
2018-06-22T20:24:31.858Z,56.34
2018-06-22T20:26:59.973Z,56.42
2018-06-22T20:29:28.139Z,57.26
2018-06-22T20:31:56.340Z,57.95
2018-06-22T20:34:30.562Z,59.71
2018-06-22T20:38:01.613Z,60.25
2018-06-22T20:40:35.152Z,61.21
2018-06-22T20:43:08.705Z,62.33
2018-06-22T20:45:38.993Z,63.14
2018-06-22T20:48:12.565Z,63.44
2018-06-22T20:50:40.779Z,63.89
2018-06-22T20:53:08.845Z,64.23
2018-06-22T20:55:36.945Z,65.08
2018-06-22T20:58:05.076Z,65.33
2018-06-22T21:00:33.124Z,66.16
2018-06-22T21:03:01.194Z,65.98
2018-06-22T21:05:29.239Z,66.40
2018-06-22T21:07:57.309Z,66.51
2018-06-22T21:10:25.386Z,66.89
2018-06-22T21:12:53.529Z,67.10
2018-06-22T21:15:21.497Z,67.58
2018-06-22T21:17:49.656Z,67.72
2018-06-22T21:20:17.691Z,67.99
2018-06-22T21:22:45.799Z,67.75
2018-06-22T21:25:13.819Z,67.97
2018-06-22T21:27:47.328Z,68.02
2018-06-22T21:30:20.821Z,67.98
2018-06-22T21:32:54.369Z,67.66
2018-06-22T21:35:27.744Z,67.68
2018-06-22T21:38:01.203Z,68.21
2018-06-22T21:40:29.276Z,67.80
2018-06-22T21:42:57.351Z,68.33
2018-06-22T21:45:25.448Z,68.05
2018-06-22T21:47:53.491Z,68.10
2018-06-22T21:50:21.552Z,67.98
2018-06-22T21:52:49.623Z,67.49
2018-06-22T21:55:17.689Z,67.95
2018-06-22T21:57:45.748Z,68.21
2018-06-22T22:00:18.501Z,66.98
2018-06-22T22:02:46.510Z,67.74
2018-06-22T22:05:14.557Z,67.13
2018-06-22T22:07:42.629Z,67.55
2018-06-22T22:10:10.675Z,67.35
2018-06-22T22:12:38.733Z,66.94
2018-06-22T22:15:06.812Z,66.37
2018-06-22T22:17:34.865Z,67.42
2018-06-22T22:20:02.912Z,67.15
2018-06-22T22:22:30.965Z,66.56
2018-06-22T22:24:59.016Z,66.24
2018-06-22T22:27:27.073Z,66.12
2018-06-22T22:29:55.103Z,66.51
2018-06-22T22:32:23.172Z,65.81
2018-06-22T22:34:51.208Z,65.36
2018-06-22T22:37:19.251Z,65.26
2018-06-22T22:39:47.304Z,65.17
2018-06-22T22:42:15.350Z,65.36
2018-06-22T22:44:43.405Z,64.80
2018-06-22T22:47:11.445Z,65.11
2018-06-22T22:49:39.511Z,65.25
2018-06-22T22:52:07.625Z,65.08
2018-06-22T22:54:35.674Z,65.34
2018-06-22T22:57:03.719Z,65.10
2018-06-22T22:59:31.773Z,65.01
2018-06-22T23:01:59.815Z,65.25
2018-06-22T23:04:27.863Z,64.49
2018-06-22T23:06:55.916Z,64.48
2018-06-22T23:09:23.985Z,64.97
2018-06-22T23:11:52.037Z,64.33
2018-06-22T23:14:20.093Z,64.82
2018-06-22T23:16:48.136Z,64.46
2018-06-22T23:19:16.186Z,64.51
2018-06-22T23:21:44.236Z,64.90
2018-06-22T23:24:12.289Z,63.89
2018-06-22T23:26:40.329Z,64.54
2018-06-22T23:29:08.385Z,64.50
2018-06-22T23:31:36.426Z,64.63
2018-06-22T23:34:04.501Z,64.12
2018-06-22T23:36:32.541Z,64.06
2018-06-22T23:39:00.596Z,64.19
2018-06-22T23:41:28.644Z,64.49
2018-06-22T23:43:56.696Z,64.57
2018-06-22T23:46:24.730Z,63.92
2018-06-22T23:48:52.783Z,64.00
2018-06-22T23:51:20.844Z,64.12
2018-06-22T23:53:48.896Z,63.97
2018-06-22T23:56:16.947Z,64.20
2018-06-22T23:58:45.002Z,64.10
